createdAt,value
2018-03-30T00:01:55.229Z,61.34
2018-03-30T00:04:26.208Z,61.58
2018-03-30T00:07:12.102Z,61.46
2018-03-30T00:09:55.282Z,61.43
2018-03-30T00:12:26.253Z,61.36
2018-03-30T00:14:57.236Z,61.78
2018-03-30T00:17:28.211Z,61.61
2018-03-30T00:19:59.232Z,61.83
2018-03-30T00:22:30.223Z,62.12
2018-03-30T00:25:01.202Z,62.07
2018-03-30T00:27:32.198Z,62.24
2018-03-30T00:30:03.220Z,62.72
2018-03-30T00:32:34.228Z,62.57
2018-03-30T00:35:05.236Z,62.51
2018-03-30T00:37:43.287Z,62.97
2018-03-30T00:40:14.303Z,63.04
2018-03-30T00:42:45.284Z,63.12
2018-03-30T00:45:16.299Z,63.19
2018-03-30T00:47:47.293Z,63.66
2018-03-30T00:50:18.263Z,63.64
2018-03-30T00:52:49.225Z,63.85
2018-03-30T00:55:20.234Z,63.82
2018-03-30T00:57:51.183Z,63.81
2018-03-30T01:00:22.158Z,63.66
2018-03-30T01:02:53.156Z,63.76
2018-03-30T01:05:24.200Z,63.87
2018-03-30T01:07:55.177Z,63.84
2018-03-30T01:10:26.186Z,63.86
2018-03-30T01:12:57.181Z,64.15
2018-03-30T01:15:28.154Z,64.51
2018-03-30T01:17:59.143Z,64.63
2018-03-30T01:20:30.140Z,64.98
2018-03-30T01:23:01.179Z,65.20
2018-03-30T01:25:32.202Z,65.44
2018-03-30T01:28:03.240Z,65.66
2018-03-30T01:30:34.244Z,65.61
2018-03-30T01:33:05.252Z,65.70
2018-03-30T01:35:36.237Z,66.05
2018-03-30T01:38:07.215Z,66.48
2018-03-30T01:40:38.169Z,66.41
2018-03-30T01:43:09.112Z,66.48
2018-03-30T01:45:40.113Z,66.47
2018-03-30T01:48:11.103Z,66.69
2018-03-30T01:50:42.096Z,66.42
2018-03-30T01:53:13.131Z,66.33
2018-03-30T01:55:44.187Z,66.76
2018-03-30T01:58:15.168Z,66.78
2018-03-30T02:00:46.185Z,66.64
2018-03-30T02:03:17.146Z,66.65
2018-03-30T02:05:48.142Z,67.11
2018-03-30T02:08:19.121Z,66.84
2018-03-30T02:10:50.186Z,66.99
2018-03-30T02:13:21.122Z,66.94
2018-03-30T02:15:52.151Z,67.08
2018-03-30T02:18:23.173Z,67.08
2018-03-30T02:20:54.173Z,66.72
2018-03-30T02:23:30.104Z,66.53
2018-03-30T02:26:01.061Z,66.49
2018-03-30T02:28:32.058Z,66.50
2018-03-30T02:31:03.044Z,66.48
2018-03-30T02:33:34.010Z,66.51
2018-03-30T02:36:04.997Z,66.75
2018-03-30T02:38:36.020Z,66.95
2018-03-30T02:41:06.988Z,67.07
2018-03-30T02:43:37.994Z,67.40
2018-03-30T02:46:08.996Z,67.55
2018-03-30T02:48:40.028Z,67.77
2018-03-30T02:51:10.996Z,68.07
2018-03-30T02:53:42.010Z,68.27
2018-03-30T02:56:13.007Z,68.15
2018-03-30T02:58:44.049Z,68.77
2018-03-30T03:01:15.090Z,69.05
2018-03-30T03:03:46.082Z,69.48
2018-03-30T03:06:17.080Z,69.27
2018-03-30T03:08:48.106Z,69.56
2018-03-30T03:11:19.113Z,69.56
2018-03-30T03:13:50.073Z,69.32
2018-03-30T03:16:21.044Z,69.44
2018-03-30T03:18:52.012Z,69.73
2018-03-30T03:21:22.997Z,69.76
2018-03-30T03:23:53.989Z,69.64
2018-03-30T03:26:24.987Z,69.87
2018-03-30T03:28:55.955Z,70.05
2018-03-30T03:31:26.945Z,70.47
2018-03-30T03:33:57.873Z,70.24
2018-03-30T03:36:28.870Z,70.03
2018-03-30T03:38:59.854Z,70.07
2018-03-30T03:41:30.840Z,69.72
2018-03-30T03:44:01.851Z,69.43
2018-03-30T03:46:32.857Z,69.66
2018-03-30T03:49:03.881Z,69.77
2018-03-30T03:51:34.901Z,70.49
2018-03-30T03:54:05.888Z,70.45
2018-03-30T03:56:36.867Z,70.42
2018-03-30T03:59:07.863Z,70.65
2018-03-30T04:01:38.835Z,70.51
2018-03-30T04:04:09.829Z,70.22
2018-03-30T04:06:40.812Z,70.25
2018-03-30T04:09:11.811Z,70.42
2018-03-30T04:11:42.788Z,70.64
2018-03-30T04:14:13.782Z,71.17
2018-03-30T04:16:44.763Z,71.39
2018-03-30T04:19:15.813Z,71.21
2018-03-30T04:21:46.836Z,71.85
2018-03-30T04:24:17.897Z,71.82
2018-03-30T04:26:48.910Z,72.06
2018-03-30T04:29:19.958Z,72.54
2018-03-30T04:31:50.926Z,72.79
2018-03-30T04:34:21.939Z,72.95
2018-03-30T04:36:52.903Z,73.07
2018-03-30T04:39:23.913Z,73.31
2018-03-30T04:41:54.904Z,73.48
2018-03-30T04:44:25.888Z,73.90
2018-03-30T04:46:56.873Z,73.76
2018-03-30T04:49:27.869Z,73.52
2018-03-30T04:51:58.852Z,73.56
2018-03-30T04:54:29.854Z,73.29
2018-03-30T04:57:00.898Z,73.25
2018-03-30T04:59:31.874Z,72.88
2018-03-30T05:02:02.881Z,72.90
2018-03-30T05:04:33.904Z,73.15
2018-03-30T05:07:04.873Z,73.23
2018-03-30T05:09:35.856Z,73.03
2018-03-30T05:12:06.852Z,72.92
2018-03-30T05:14:37.865Z,72.96
2018-03-30T05:17:08.803Z,72.82
2018-03-30T05:19:39.838Z,72.87
2018-03-30T05:22:10.871Z,72.96
2018-03-30T05:24:41.849Z,72.56
2018-03-30T05:27:12.824Z,72.50
2018-03-30T05:29:43.831Z,72.58
2018-03-30T05:32:14.813Z,72.55
2018-03-30T05:34:45.783Z,72.29
2018-03-30T05:37:16.783Z,71.83
2018-03-30T05:39:47.825Z,71.59
2018-03-30T05:42:18.948Z,71.58
2018-03-30T05:44:49.903Z,71.62
2018-03-30T05:47:20.906Z,71.71
2018-03-30T05:49:51.878Z,71.52
2018-03-30T05:52:22.853Z,71.74
2018-03-30T05:54:53.824Z,72.05
2018-03-30T05:57:24.782Z,71.98
2018-03-30T05:59:55.795Z,71.68
2018-03-30T06:02:26.781Z,71.29
2018-03-30T06:04:57.766Z,71.08
2018-03-30T06:07:28.813Z,70.33
2018-03-30T06:09:59.799Z,69.67
2018-03-30T06:12:30.813Z,68.27
2018-03-30T06:15:01.780Z,66.30
2018-03-30T06:17:32.761Z,64.02
2018-03-30T06:20:03.780Z,61.80
2018-03-30T06:22:34.798Z,59.89
2018-03-30T06:25:05.789Z,58.65
2018-03-30T06:27:36.795Z,56.35
2018-03-30T06:30:07.794Z,55.22
2018-03-30T06:32:38.800Z,55.29
2018-03-30T06:35:09.767Z,54.49
2018-03-30T06:37:40.785Z,52.97
2018-03-30T06:40:11.788Z,52.23
2018-03-30T06:42:42.777Z,51.67
2018-03-30T06:45:13.785Z,49.99
2018-03-30T06:47:44.805Z,49.50
2018-03-30T06:50:15.816Z,49.22
2018-03-30T06:52:46.803Z,49.18
2018-03-30T06:55:17.778Z,49.77
2018-03-30T06:57:48.814Z,50.28
2018-03-30T07:00:19.775Z,51.04
2018-03-30T07:02:50.768Z,51.62
2018-03-30T07:05:21.751Z,51.98
2018-03-30T07:07:52.668Z,52.46
2018-03-30T07:10:23.651Z,52.71
2018-03-30T07:12:54.656Z,51.93
2018-03-30T07:15:25.626Z,50.39
2018-03-30T07:17:56.572Z,49.20
2018-03-30T07:20:27.553Z,46.93
2018-03-30T07:22:58.515Z,36.10
2018-03-30T07:25:29.534Z,30.29
2018-03-30T07:28:00.504Z,24.88
2018-03-30T07:30:31.511Z,22.39
2018-03-30T07:33:02.521Z,19.49
2018-03-30T07:35:33.528Z,17.20
2018-03-30T07:38:04.516Z,16.27
2018-03-30T07:40:35.447Z,15.09
2018-03-30T07:43:06.436Z,15.91
2018-03-30T07:45:37.436Z,18.04
2018-03-30T07:48:08.448Z,16.72
2018-03-30T07:50:39.409Z,14.24
2018-03-30T07:53:10.453Z,13.53
2018-03-30T07:55:41.444Z,15.28
2018-03-30T07:58:12.391Z,17.67
2018-03-30T08:00:43.343Z,19.41
2018-03-30T08:03:14.344Z,19.09
2018-03-30T08:05:45.316Z,15.89
2018-03-30T08:08:16.300Z,13.13
2018-03-30T08:10:47.264Z,12.78
2018-03-30T08:13:18.240Z,10.97
2018-03-30T08:15:49.219Z,10.39
2018-03-30T08:18:20.170Z,12.38
2018-03-30T08:20:51.284Z,13.84
2018-03-30T08:23:22.301Z,15.81
2018-03-30T08:25:53.348Z,18.60
2018-03-30T08:28:24.371Z,20.73
2018-03-30T08:30:55.372Z,21.79
2018-03-30T08:33:26.425Z,24.11
2018-03-30T08:35:57.421Z,26.89
2018-03-30T08:38:28.417Z,28.62
2018-03-30T08:40:59.379Z,30.98
2018-03-30T08:43:30.387Z,32.28
2018-03-30T08:46:01.411Z,33.92
2018-03-30T08:48:32.373Z,35.06
2018-03-30T08:51:03.392Z,35.98
2018-03-30T08:53:34.394Z,36.86
2018-03-30T08:56:05.395Z,37.40
2018-03-30T08:58:36.373Z,37.77
2018-03-30T09:01:07.409Z,37.55
2018-03-30T09:03:38.397Z,36.56
2018-03-30T09:06:09.396Z,35.55
2018-03-30T09:08:40.393Z,34.30
2018-03-30T09:11:11.401Z,33.44
2018-03-30T09:13:42.388Z,32.46
2018-03-30T09:16:13.392Z,32.22
2018-03-30T09:18:44.392Z,32.38
2018-03-30T09:21:15.378Z,32.72
2018-03-30T09:23:46.381Z,32.50
2018-03-30T09:26:17.345Z,32.71
2018-03-30T09:28:48.330Z,32.48
2018-03-30T09:31:19.303Z,31.65
2018-03-30T09:33:50.312Z,30.26
2018-03-30T09:36:21.297Z,27.90
2018-03-30T09:38:52.300Z,25.95
2018-03-30T09:41:23.276Z,23.85
2018-03-30T09:43:54.254Z,23.05
2018-03-30T09:46:25.270Z,21.49
2018-03-30T09:48:56.247Z,20.27
2018-03-30T09:51:27.254Z,18.38
2018-03-30T09:53:58.274Z,17.09
2018-03-30T09:56:29.323Z,15.99
2018-03-30T09:59:00.262Z,14.73
2018-03-30T10:01:31.252Z,13.15
2018-03-30T10:04:02.228Z,11.33
2018-03-30T10:06:33.237Z,11.53
2018-03-30T10:09:04.246Z,11.01
2018-03-30T10:11:35.227Z,12.03
2018-03-30T10:14:06.225Z,12.87
2018-03-30T10:16:37.190Z,13.42
2018-03-30T10:19:08.154Z,14.35
2018-03-30T10:21:39.157Z,14.53
2018-03-30T10:24:10.134Z,13.99
2018-03-30T10:26:41.113Z,13.91
2018-03-30T10:29:12.184Z,14.40
2018-03-30T10:31:43.204Z,14.44
2018-03-30T10:34:14.166Z,16.12
2018-03-30T10:36:45.192Z,16.82
2018-03-30T10:39:16.152Z,17.34
2018-03-30T10:41:47.091Z,17.29
2018-03-30T10:44:18.089Z,17.11
2018-03-30T10:46:49.097Z,17.15
2018-03-30T10:49:20.186Z,17.98
2018-03-30T10:51:51.162Z,18.12
2018-03-30T10:54:22.160Z,17.99
2018-03-30T10:56:53.105Z,16.73
2018-03-30T10:59:24.100Z,15.98
2018-03-30T11:01:55.079Z,15.50
2018-03-30T11:04:26.095Z,15.14
2018-03-30T11:06:57.059Z,14.21
2018-03-30T11:09:28.027Z,14.27
2018-03-30T11:11:58.993Z,14.21
2018-03-30T11:14:29.966Z,15.33
2018-03-30T11:17:00.934Z,17.00
2018-03-30T11:19:31.907Z,18.74
2018-03-30T11:22:02.902Z,20.12
2018-03-30T11:24:33.891Z,21.39
2018-03-30T11:27:04.883Z,21.78
2018-03-30T11:29:35.873Z,21.96
2018-03-30T11:32:06.852Z,21.76
2018-03-30T11:34:37.780Z,21.54
2018-03-30T11:37:08.777Z,21.46
2018-03-30T11:39:39.763Z,21.12
2018-03-30T11:42:10.814Z,21.06
2018-03-30T11:44:41.800Z,20.93
2018-03-30T11:47:12.767Z,21.38
2018-03-30T11:49:43.760Z,21.59
2018-03-30T11:52:14.769Z,21.28
2018-03-30T11:54:45.791Z,21.07
2018-03-30T11:57:16.764Z,20.26
2018-03-30T12:00:02.682Z,20.54
2018-03-30T12:02:33.672Z,21.42
2018-03-30T12:05:04.667Z,21.81
2018-03-30T12:07:35.691Z,21.90
2018-03-30T12:10:06.684Z,21.82
2018-03-30T12:12:37.683Z,22.05
2018-03-30T12:15:08.643Z,22.43
2018-03-30T12:17:39.668Z,22.50
2018-03-30T12:20:10.646Z,22.76
2018-03-30T12:22:41.619Z,22.58
2018-03-30T12:25:12.604Z,23.17
2018-03-30T12:27:43.601Z,23.13
2018-03-30T12:30:14.641Z,23.44
2018-03-30T12:32:45.654Z,22.67
2018-03-30T12:35:16.645Z,22.31
2018-03-30T12:37:47.672Z,21.54
2018-03-30T12:40:18.677Z,22.01
2018-03-30T12:42:49.652Z,21.52
2018-03-30T12:45:20.616Z,21.78
2018-03-30T12:47:51.557Z,22.28
2018-03-30T12:50:22.524Z,22.37
2018-03-30T12:52:53.491Z,21.81
2018-03-30T12:55:24.471Z,22.04
2018-03-30T12:57:55.488Z,21.00
2018-03-30T13:00:26.502Z,20.53
2018-03-30T13:02:57.443Z,20.60
2018-03-30T13:05:28.431Z,21.15
2018-03-30T13:07:59.430Z,21.87
2018-03-30T13:10:30.439Z,22.48
2018-03-30T13:13:01.387Z,22.62
2018-03-30T13:15:32.413Z,22.37
2018-03-30T13:18:03.381Z,22.01
2018-03-30T13:20:34.368Z,21.67
2018-03-30T13:23:05.370Z,21.62
2018-03-30T13:25:36.412Z,21.05
2018-03-30T13:28:07.362Z,20.92
2018-03-30T13:30:38.358Z,21.58
2018-03-30T13:33:09.355Z,21.87
2018-03-30T13:35:40.377Z,22.19
2018-03-30T13:38:11.358Z,21.80
2018-03-30T13:40:42.434Z,21.63
2018-03-30T13:43:13.401Z,21.36
2018-03-30T13:45:44.404Z,21.34
2018-03-30T13:48:15.408Z,21.11
2018-03-30T13:54:01.949Z,20.86
2018-03-30T13:56:36.676Z,20.82
2018-03-30T13:59:09.487Z,21.12
2018-03-30T14:01:51.306Z,21.05
2018-03-30T14:04:29.504Z,21.30
2018-03-30T14:10:09.318Z,21.38
2018-03-30T14:12:40.347Z,21.03
2018-03-30T14:15:12.195Z,20.92
2018-03-30T14:20:44.082Z,21.65
2018-03-30T14:23:18.811Z,22.60
2018-03-30T14:25:55.831Z,23.84
2018-03-30T14:28:27.748Z,24.28
2018-03-30T14:31:03.552Z,25.32
2018-03-30T14:33:34.544Z,25.83
2018-03-30T14:36:24.367Z,26.19
2018-03-30T14:39:06.298Z,26.63
2018-03-30T14:41:37.318Z,26.32
2018-03-30T14:44:09.289Z,25.50
2018-03-30T14:46:45.199Z,25.11
2018-03-30T14:52:24.979Z,24.74
2018-03-30T14:58:26.197Z,24.75
2018-03-30T15:04:00.925Z,26.12
2018-03-30T15:09:46.584Z,27.29
2018-03-30T15:12:24.551Z,27.78
2018-03-30T15:15:04.413Z,27.93
2018-03-30T15:17:47.204Z,28.52
2018-03-30T15:20:22.014Z,28.60
2018-03-30T15:22:55.815Z,28.62
2018-03-30T15:25:34.447Z,28.93
2018-03-30T15:28:06.398Z,28.78
2018-03-30T15:30:49.171Z,28.68
2018-03-30T15:36:21.573Z,29.98
2018-03-30T15:38:52.595Z,30.19
2018-03-30T15:41:23.577Z,29.89
2018-03-30T15:43:54.584Z,30.28
2018-03-30T15:46:28.426Z,30.67
2018-03-30T15:48:59.456Z,31.12
2018-03-30T15:51:42.986Z,31.34
2018-03-30T15:54:13.744Z,31.70
2018-03-30T15:56:46.655Z,32.33
2018-03-30T15:59:17.665Z,32.33
2018-03-30T16:01:48.693Z,32.88
2018-03-30T16:04:19.725Z,33.03
2018-03-30T16:06:50.711Z,32.88
2018-03-30T16:09:23.609Z,33.34
2018-03-30T16:11:56.449Z,33.79
2018-03-30T16:14:27.436Z,33.81
2018-03-30T16:16:58.507Z,34.26
2018-03-30T16:19:29.256Z,34.48
2018-03-30T16:22:00.047Z,34.30
2018-03-30T16:24:30.825Z,34.37
2018-03-30T16:27:01.619Z,34.29
2018-03-30T16:29:32.406Z,34.12
2018-03-30T16:32:03.151Z,34.12
2018-03-30T16:34:33.945Z,33.63
2018-03-30T16:37:04.701Z,33.51
2018-03-30T16:39:35.471Z,33.64
2018-03-30T16:42:06.229Z,33.72
2018-03-30T16:44:37.030Z,34.20
2018-03-30T16:47:07.833Z,34.37
2018-03-30T16:49:38.621Z,35.04
2018-03-30T16:52:09.412Z,35.57
2018-03-30T16:54:40.199Z,35.64
2018-03-30T16:57:10.996Z,36.03
2018-03-30T16:59:41.771Z,36.33
2018-03-30T17:02:12.557Z,36.57
2018-03-30T17:04:43.353Z,36.97
2018-03-30T17:07:14.141Z,37.32
2018-03-30T17:09:44.941Z,37.67
2018-03-30T17:12:15.712Z,37.97
2018-03-30T17:14:46.475Z,38.44
2018-03-30T17:17:17.253Z,38.55
2018-03-30T17:19:48.042Z,38.81
2018-03-30T17:22:18.805Z,39.12
2018-03-30T17:24:49.582Z,39.60
2018-03-30T17:27:20.357Z,39.73
2018-03-30T17:29:51.123Z,40.08
2018-03-30T17:32:21.898Z,40.46
2018-03-30T17:34:52.687Z,40.58
2018-03-30T17:37:23.465Z,40.96
2018-03-30T17:39:54.253Z,41.38
2018-03-30T17:42:25.037Z,42.19
2018-03-30T17:44:55.805Z,42.48
2018-03-30T17:47:26.627Z,42.53
2018-03-30T17:49:57.415Z,42.90
2018-03-30T17:52:28.185Z,43.27
2018-03-30T17:54:58.993Z,43.81
2018-03-30T17:57:29.756Z,43.62
2018-03-30T18:00:00.576Z,43.99
2018-03-30T18:02:31.365Z,44.78
2018-03-30T18:05:02.145Z,44.74
2018-03-30T18:07:32.937Z,45.49
2018-03-30T18:10:03.699Z,45.76
2018-03-30T18:12:34.545Z,46.20
2018-03-30T18:15:05.323Z,46.21
2018-03-30T18:17:36.087Z,46.74
2018-03-30T18:20:06.865Z,46.66
2018-03-30T18:22:37.661Z,46.64
2018-03-30T18:25:08.443Z,46.63
2018-03-30T18:27:39.224Z,46.97
2018-03-30T18:30:10.019Z,46.99
2018-03-30T18:32:40.767Z,46.62
2018-03-30T18:35:11.516Z,46.66
2018-03-30T18:37:42.279Z,46.75
2018-03-30T18:40:13.059Z,46.71
2018-03-30T18:42:43.930Z,47.14
2018-03-30T18:45:14.736Z,46.94
2018-03-30T18:47:45.506Z,47.29
2018-03-30T18:50:16.311Z,47.38
2018-03-30T18:52:47.093Z,47.40
2018-03-30T18:55:17.909Z,47.68
2018-03-30T18:57:48.713Z,47.55
2018-03-30T19:00:19.502Z,47.59
2018-03-30T19:02:50.294Z,47.46
2018-03-30T19:05:21.046Z,47.40
2018-03-30T19:07:51.827Z,47.74
2018-03-30T19:10:22.602Z,47.94
2018-03-30T19:12:53.375Z,48.26
2018-03-30T19:15:24.141Z,48.24
2018-03-30T19:17:54.924Z,48.16
2018-03-30T19:20:25.685Z,48.46
2018-03-30T19:22:56.476Z,48.40
2018-03-30T19:25:27.246Z,48.67
2018-03-30T19:27:58.030Z,48.36
2018-03-30T19:30:28.801Z,48.71
2018-03-30T19:32:59.613Z,48.58
2018-03-30T19:35:30.409Z,48.53
2018-03-30T19:38:01.161Z,48.38
2018-03-30T19:40:31.903Z,48.57
2018-03-30T19:43:02.684Z,48.58
2018-03-30T19:45:33.434Z,48.33
2018-03-30T19:48:04.214Z,47.97
2018-03-30T19:50:34.961Z,47.97
2018-03-30T19:53:05.744Z,48.12
2018-03-30T19:55:36.521Z,48.41
2018-03-30T19:58:14.215Z,48.56
2018-03-30T20:00:44.991Z,48.70
2018-03-30T20:03:15.789Z,48.74
2018-03-30T20:05:46.589Z,48.75
2018-03-30T20:08:17.361Z,49.12
2018-03-30T20:10:48.129Z,49.43
2018-03-30T20:13:18.888Z,50.13
2018-03-30T20:15:49.632Z,50.67
2018-03-30T20:18:20.412Z,51.08
2018-03-30T20:20:51.177Z,51.66
2018-03-30T20:23:21.982Z,52.01
2018-03-30T20:25:52.762Z,51.93
2018-03-30T20:28:23.566Z,52.16
2018-03-30T20:30:54.354Z,52.56
2018-03-30T20:33:25.138Z,52.63
2018-03-30T20:35:55.908Z,52.51
2018-03-30T20:38:26.651Z,52.42
2018-03-30T20:40:57.421Z,52.84
2018-03-30T20:43:28.172Z,52.67
2018-03-30T20:45:58.925Z,52.86
2018-03-30T20:48:29.673Z,53.24
2018-03-30T20:51:00.440Z,53.09
2018-03-30T20:53:31.237Z,53.31
2018-03-30T20:56:02.034Z,53.64
2018-03-30T20:58:32.882Z,53.37
2018-03-30T21:01:03.664Z,53.55
2018-03-30T21:03:34.453Z,53.80
2018-03-30T21:06:05.229Z,54.06
2018-03-30T21:08:36.029Z,54.50
2018-03-30T21:11:06.803Z,54.58
2018-03-30T21:13:37.593Z,55.00
2018-03-30T21:16:08.355Z,55.40
2018-03-30T21:18:39.144Z,55.76
2018-03-30T21:21:09.896Z,55.70
2018-03-30T21:23:40.663Z,56.27
2018-03-30T21:26:11.424Z,56.09
2018-03-30T21:28:42.225Z,56.54
2018-03-30T21:31:13.022Z,56.37
2018-03-30T21:33:43.800Z,56.09
2018-03-30T21:36:14.581Z,56.38
2018-03-30T21:38:45.318Z,56.60
2018-03-30T21:41:16.095Z,56.83
2018-03-30T21:43:46.846Z,57.83
2018-03-30T21:46:17.627Z,58.93
2018-03-30T21:48:48.382Z,59.01
2018-03-30T21:51:19.161Z,58.71
2018-03-30T21:53:49.941Z,58.52
2018-03-30T21:56:20.719Z,58.25
2018-03-30T21:58:51.493Z,58.19
2018-03-30T22:01:22.233Z,58.04
2018-03-30T22:03:53.021Z,59.16
2018-03-30T22:06:23.763Z,59.73
2018-03-30T22:08:54.520Z,59.64
2018-03-30T22:11:25.295Z,59.21
2018-03-30T22:13:56.060Z,59.09
2018-03-30T22:16:26.850Z,58.97
2018-03-30T22:18:57.616Z,59.00
2018-03-30T22:21:28.409Z,59.04
2018-03-30T22:23:59.199Z,59.19
2018-03-30T22:26:29.985Z,59.34
2018-03-30T22:29:00.787Z,59.61
2018-03-30T22:31:31.554Z,60.17
2018-03-30T22:34:02.305Z,59.86
2018-03-30T22:36:33.043Z,59.97
2018-03-30T22:39:03.854Z,59.77
2018-03-30T22:41:34.619Z,60.14
2018-03-30T22:44:05.416Z,60.54
2018-03-30T22:46:36.169Z,61.18
2018-03-30T22:49:06.927Z,61.90
2018-03-30T22:51:37.716Z,62.52
2018-03-30T22:54:08.509Z,63.19
2018-03-30T22:56:39.261Z,64.11
2018-03-30T22:59:10.067Z,64.17
2018-03-30T23:01:40.845Z,64.78
2018-03-30T23:04:11.587Z,65.07
2018-03-30T23:06:42.423Z,65.12
2018-03-30T23:09:13.153Z,65.19
2018-03-30T23:11:43.953Z,65.24
2018-03-30T23:14:14.730Z,65.44
2018-03-30T23:16:45.518Z,65.44
2018-03-30T23:19:16.263Z,65.45
2018-03-30T23:21:47.019Z,65.44
2018-03-30T23:24:17.796Z,65.52
2018-03-30T23:26:48.589Z,65.26
2018-03-30T23:29:19.350Z,65.99
2018-03-30T23:31:50.148Z,65.17
2018-03-30T23:34:20.929Z,65.75
2018-03-30T23:36:51.707Z,66.13
2018-03-30T23:39:22.478Z,66.85
2018-03-30T23:41:53.236Z,67.42
2018-03-30T23:44:24.022Z,67.57
2018-03-30T23:46:54.822Z,67.50
2018-03-30T23:49:25.632Z,67.53
2018-03-30T23:51:56.418Z,66.94
2018-03-30T23:54:27.179Z,66.74
2018-03-30T23:56:57.984Z,66.30
2018-03-30T23:59:28.765Z,65.88
